Time;durP1;ratioP1;P1;durP2;ratioP2;P2;SDS_P1;SDS_P2;PMS_P1;PMS_P2;Temp;Humidity;BMP_temperature;BMP_pressure;BME280_temperature;BME280_humidity;BME280_pressure;Samples;Min_cycle;Max_cycle;Signal;HPM_P1;HPM_P2
2022/03/11 00:01:44;;;;;;;2.88;1.40;;;19.70;46.00;;;;;;4934042;29;20047;-87
2022/03/11 00:04:54;;;;;;;2.83;1.02;;;18.80;45.00;;;;;;4952237;29;20051;-87
2022/03/11 00:07:49;;;;;;;3.10;1.05;;;19.30;45.40;;;;;;4877015;29;20140;-87
2022/03/11 00:12:50;;;;;;;3.22;1.20;;;19.70;45.60;;;;;;5283814;23;20074;-86
2022/03/11 00:15:22;;;;;;;2.92;1.10;;;19.90;46.10;;;;;;4937633;29;20047;-86
2022/03/11 00:18:19;;;;;;;2.13;1.05;;;19.60;46.30;;;;;;4955886;29;20082;-86
2022/03/11 00:37:08;;;;;;;3.40;1.10;;;19.60;45.90;;;;;;4944155;28;20069;-86
2022/03/11 00:40:17;;;;;;;2.88;1.13;;;19.50;45.60;;;;;;4907761;28;20054;-89
2022/03/11 00:43:13;;;;;;;3.13;1.20;;;19.60;45.70;;;;;;4956594;28;20479;-86
2022/03/11 00:49:13;;;;;;;3.35;1.40;;;18.80;45.30;;;;;;5172086;23;20066;-85
2022/03/11 00:55:22;;;;;;;4.47;1.30;;;19.60;45.80;;;;;;5050680;23;20059;-87
2022/03/11 00:58:46;;;;;;;2.75;1.17;;;18.70;45.20;;;;;;4937261;29;20067;-87
2022/03/11 01:05:22;;;;;;;2.97;1.00;;;19.60;46.20;;;;;;4953215;29;20047;-87
2022/03/11 01:08:24;;;;;;;2.92;1.05;;;20.60;46.30;;;;;;4876333;29;20881;-86
2022/03/11 01:21:13;;;;;;;2.42;1.30;;;19.10;45.50;;;;;;5592396;23;20055;-86
2022/03/11 02:03:33;;;;;;;2.15;0.80;;;19.30;45.70;;;;;;5483275;23;20062;-86
2022/03/11 02:06:39;;;;;;;2.25;1.02;;;19.60;45.90;;;;;;4935964;29;20082;-87
2022/03/11 02:16:57;;;;;;;2.78;1.00;;;19.70;45.90;;;;;;5234622;23;20062;-87
2022/03/11 02:41:27;;;;;;;3.08;1.02;;;19.30;45.70;;;;;;4977629;23;20066;-86
2022/03/11 02:43:55;;;;;;;2.28;0.90;;;19.20;45.70;;;;;;4935291;29;20047;-87
2022/03/11 02:59:10;;;;;;;2.22;1.20;;;19.50;45.80;;;;;;4883567;29;20055;-86
2022/03/11 03:02:17;;;;;;;2.65;0.90;;;19.40;46.20;;;;;;4916355;29;20896;-87
2022/03/11 03:11:53;;;;;;;2.17;0.88;;;19.20;45.70;;;;;;5070895;23;20066;-88
2022/03/11 03:14:40;;;;;;;2.00;0.80;;;19.20;45.60;;;;;;4874923;29;20053;-87
2022/03/11 03:20:36;;;;;;;2.33;0.90;;;19.60;45.90;;;;;;4893118;29;20056;-88
2022/03/11 03:23:08;;;;;;;2.65;1.17;;;20.60;47.00;;;;;;4877303;29;20063;-88
2022/03/11 03:25:36;;;;;;;1.65;0.85;;;18.80;46.00;;;;;;4892031;29;20053;-88
2022/03/11 03:31:58;;;;;;;2.50;0.98;;;20.80;47.00;;;;;;4854742;29;20064;-88
2022/03/11 03:37:41;;;;;;;1.92;0.85;;;19.30;46.10;;;;;;5128867;23;20070;-88
2022/03/11 03:49:03;;;;;;;1.98;0.93;;;19.10;45.60;;;;;;3231187;23;20058;-86
2022/03/11 03:52:11;;;;;;;2.45;0.90;;;17.60;45.70;;;;;;4939035;29;20059;-86
2022/03/11 03:55:26;;;;;;;2.83;0.90;;;19.20;45.70;;;;;;4909193;29;20059;-87
2022/03/11 03:58:33;;;;;;;1.88;0.90;;;19.00;45.60;;;;;;4868462;29;20064;-86
2022/03/11 04:05:43;;;;;;;;;;;;;;;;;;;;;
2022/03/11 04:15:29;;;;;;;2.70;0.90;;;19.00;45.60;;;;;;5020259;23;20069;-86
2022/03/11 04:18:41;;;;;;;2.20;1.10;;;19.10;45.60;;;;;;4938198;29;20499;-86
2022/03/11 04:21:36;;;;;;;1.83;0.80;;;18.90;45.60;;;;;;4937593;29;20403;-87
2022/03/11 04:24:02;;;;;;;2.00;0.90;;;18.00;45.00;;;;;;4912316;29;20051;-87
2022/03/11 04:27:12;;;;;;;2.17;1.00;;;18.90;45.90;;;;;;4922315;29;20053;-87
2022/03/11 04:33:48;;;;;;;2.10;0.80;;;19.30;45.70;;;;;;4955314;29;20058;-86
2022/03/11 04:36:15;;;;;;;2.42;1.13;;;19.00;45.60;;;;;;4937035;29;20054;-87
2022/03/11 04:39:11;;;;;;;2.40;0.90;;;20.00;47.20;;;;;;4955203;29;20515;-87
2022/03/11 04:41:55;;;;;;;2.45;1.00;;;19.40;45.80;;;;;;4955054;29;20041;-87
2022/03/11 04:44:35;;;;;;;2.15;0.90;;;20.20;46.80;;;;;;4955254;29;20047;-87
2022/03/11 04:47:10;;;;;;;1.23;0.68;;;19.90;46.90;;;;;;4937391;29;20061;-87
2022/03/11 04:49:48;;;;;;;1.85;0.80;;;20.20;46.60;;;;;;4954303;29;20110;-87
2022/03/11 04:56:32;;;;;;;2.58;0.98;;;18.90;45.50;;;;;;4954111;29;20061;-87
2022/03/11 04:59:00;;;;;;;2.22;0.88;;;18.90;45.50;;;;;;4937355;29;20126;-87
2022/03/11 05:01:35;;;;;;;1.63;0.77;;;20.40;46.60;;;;;;4937648;29;20082;-87
2022/03/11 05:04:01;;;;;;;3.03;1.00;;;19.80;46.50;;;;;;4936571;29;20047;-87
2022/03/11 05:07:07;;;;;;;2.20;0.80;;;19.80;46.40;;;;;;4954641;29;20066;-87
2022/03/11 05:10:04;;;;;;;2.10;0.85;;;19.00;45.60;;;;;;4879497;29;20059;-87
2022/03/11 05:18:42;;;;;;;2.10;0.82;;;18.90;45.50;;;;;;5526474;23;20110;-86
2022/03/11 05:21:37;;;;;;;2.05;0.80;;;20.10;47.40;;;;;;4918360;29;20456;-87
2022/03/11 05:24:06;;;;;;;2.50;1.00;;;18.50;45.30;;;;;;4917045;29;20056;-87
2022/03/11 05:27:52;;;;;;;2.08;0.88;;;17.70;45.60;;;;;;4936962;29;20039;-87
2022/03/11 05:30:17;;;;;;;1.75;0.90;;;19.10;45.60;;;;;;4953593;29;20399;-86
2022/03/11 05:33:01;;;;;;;2.20;1.00;;;17.80;45.30;;;;;;4935971;29;20040;-87
2022/03/11 05:35:27;;;;;;;3.05;1.02;;;18.70;45.90;;;;;;4937000;29;20332;-87
2022/03/11 05:38:34;;;;;;;2.42;1.10;;;18.90;46.00;;;;;;4936827;29;20538;-86
2022/03/11 05:41:18;;;;;;;1.88;0.80;;;19.00;45.50;;;;;;4936540;29;20061;-87
2022/03/11 05:48:19;;;;;;;1.90;0.80;;;17.80;44.90;;;;;;4860085;29;20090;-87
2022/03/11 05:51:03;;;;;;;2.05;0.82;;;18.90;45.50;;;;;;4858515;29;20076;-88
2022/03/11 05:54:36;;;;;;;2.13;0.82;;;18.70;45.90;;;;;;4875265;29;20052;-86
2022/03/11 05:57:05;;;;;;;1.92;0.80;;;18.60;45.30;;;;;;4818813;29;20135;-87
2022/03/11 05:59:40;;;;;;;1.73;0.80;;;18.30;45.50;;;;;;4859698;29;20514;-86
2022/03/11 06:02:05;;;;;;;1.95;0.82;;;20.00;46.30;;;;;;4875450;29;20449;-86
2022/03/11 06:04:31;;;;;;;2.47;1.00;;;19.90;46.30;;;;;;4936235;29;20050;-86
2022/03/11 06:10:03;;;;;;;2.22;1.00;;;18.70;45.40;;;;;;4883080;29;20557;-86
2022/03/11 06:12:41;;;;;;;1.80;0.85;;;18.70;45.90;;;;;;4936272;29;20055;-86
2022/03/11 06:15:28;;;;;;;2.70;0.90;;;19.60;46.00;;;;;;4952699;29;20047;-86
2022/03/11 06:18:23;;;;;;;2.15;0.85;;;18.90;45.90;;;;;;4936287;29;20059;-86
2022/03/11 06:20:49;;;;;;;2.85;1.10;;;18.80;45.40;;;;;;4858537;29;20540;-86
2022/03/11 06:23:41;;;;;;;2.17;0.93;;;18.70;45.60;;;;;;4875005;29;20053;-86
2022/03/11 06:26:07;;;;;;;2.20;1.00;;;18.20;45.00;;;;;;4922648;23;20077;-85
2022/03/11 06:28:36;;;;;;;1.90;0.90;;;18.20;45.80;;;;;;4935426;29;20500;-86
2022/03/11 06:31:17;;;;;;;1.55;0.73;;;19.60;46.00;;;;;;4928325;29;20079;-85
2022/03/11 06:33:45;;;;;;;1.92;0.90;;;19.90;46.80;;;;;;4944512;29;20046;-85
2022/03/11 06:36:17;;;;;;;2.50;1.10;;;18.40;45.30;;;;;;4935005;29;20043;-86
2022/03/11 06:38:48;;;;;;;2.90;1.10;;;17.00;45.00;;;;;;4935797;29;20435;-85
2022/03/11 06:41:41;;;;;;;2.50;1.02;;;18.60;45.80;;;;;;4934101;29;20050;-85
2022/03/11 06:47:46;;;;;;;2.65;1.02;;;19.40;45.60;;;;;;4946353;29;20082;-86
2022/03/11 06:50:40;;;;;;;2.28;0.80;;;18.00;45.60;;;;;;4924132;29;20044;-86
2022/03/11 06:53:18;;;;;;;2.15;0.88;;;18.80;45.30;;;;;;4931932;29;20044;-86
2022/03/11 06:56:02;;;;;;;3.03;1.10;;;18.50;46.00;;;;;;4946943;29;20089;-86
2022/03/11 06:59:14;;;;;;;1.92;0.77;;;18.60;45.70;;;;;;4928366;29;20051;-86
2022/03/11 07:01:44;;;;;;;1.92;1.05;;;19.10;45.50;;;;;;4931833;29;20403;-86
2022/03/11 07:04:09;;;;;;;2.28;1.02;;;19.70;46.10;;;;;;4917142;29;20131;-86
2022/03/11 07:06:35;;;;;;;2.45;1.10;;;19.40;46.60;;;;;;4923183;29;20261;-86
2022/03/11 07:09:35;;;;;;;2.55;1.08;;;18.40;46.20;;;;;;4935416;29;20047;-86
2022/03/11 07:12:03;;;;;;;3.05;1.15;;;18.60;45.20;;;;;;4865473;29;20067;-86
2022/03/11 07:14:38;;;;;;;2.63;1.20;;;19.60;45.80;;;;;;4932759;29;20047;-85
2022/03/11 07:17:31;;;;;;;1.92;0.90;;;18.70;45.80;;;;;;4915703;29;20058;-86
2022/03/11 07:20:15;;;;;;;2.35;0.90;;;19.80;45.80;;;;;;4915752;29;20052;-86
2022/03/11 07:22:56;;;;;;;2.28;0.90;;;19.40;46.40;;;;;;4916183;29;20055;-85
2022/03/11 07:25:34;;;;;;;2.97;1.25;;;18.70;47.20;;;;;;4915424;29;20059;-86
2022/03/11 07:28:20;;;;;;;1.67;0.93;;;20.30;46.40;;;;;;4912323;29;20052;-85
2022/03/11 07:30:46;;;;;;;2.10;0.93;;;18.60;46.00;;;;;;4912047;29;20052;-85
2022/03/11 07:33:12;;;;;;;2.65;1.23;;;20.00;46.00;;;;;;4914360;29;20040;-84
2022/03/11 07:35:38;;;;;;;2.42;1.10;;;18.60;45.20;;;;;;4913964;29;20560;-85
2022/03/11 07:38:03;;;;;;;2.83;1.25;;;19.30;45.90;;;;;;4921349;29;20583;-86
2022/03/11 07:40:30;;;;;;;2.45;0.90;;;17.20;44.70;;;;;;4923414;29;20496;-85
2022/03/11 07:43:07;;;;;;;2.97;1.30;;;18.60;45.50;;;;;;4927375;29;20437;-85
2022/03/11 07:45:36;;;;;;;2.65;1.17;;;18.90;45.80;;;;;;4920087;29;20040;-83
2022/03/11 07:48:01;;;;;;;3.03;1.13;;;19.00;45.50;;;;;;4929296;29;20055;-84
2022/03/11 07:50:58;;;;;;;3.05;1.40;;;18.30;45.10;;;;;;4928228;29;20066;-83
2022/03/11 07:53:24;;;;;;;2.42;1.25;;;18.80;45.30;;;;;;4922855;29;20407;-84
2022/03/11 08:02:34;;;;;;;2.75;1.15;;;17.90;44.70;;;;;;5170510;23;20110;-85
2022/03/11 08:08:44;;;;;;;3.83;1.30;;;18.80;45.30;;;;;;4909947;29;20043;-84
2022/03/11 08:12:13;;;;;;;3.70;1.50;;;17.90;44.80;;;;;;5200121;23;20089;-80
2022/03/11 08:23:41;;;;;;;10.48;5.13;;;18.70;44.70;;;;;;4911236;29;20143;-85
2022/03/11 08:30:54;;;;;;;8.90;4.35;;;18.80;44.80;;;;;;5302855;23;20062;-87
2022/03/11 08:33:45;;;;;;;10.43;4.75;;;18.90;44.90;;;;;;4955614;29;20099;-83
2022/03/11 08:36:39;;;;;;;7.65;3.90;;;18.70;45.00;;;;;;4936977;29;20089;-86
2022/03/11 08:43:08;;;;;;;12.35;5.43;;;17.80;44.20;;;;;;4886035;29;20052;-82
2022/03/11 08:45:52;;;;;;;8.20;3.67;;;18.80;45.60;;;;;;4938607;29;20058;-85
2022/03/11 08:48:30;;;;;;;8.85;4.00;;;19.80;45.70;;;;;;4934663;29;20136;-91
2022/03/11 09:30:15;;;;;;;6.97;3.17;;;19.80;44.60;;;;;;4961839;29;20055;-88
2022/03/11 09:48:58;;;;;;;6.35;3.05;;;19.10;43.90;;;;;;5919143;23;21339;-87
2022/03/11 09:52:09;;;;;;;5.70;2.67;;;19.10;44.40;;;;;;4862333;29;20063;-90
2022/03/11 10:13:51;;;;;;;6.35;3.13;;;19.60;43.70;;;;;;4931119;29;20078;-87
2022/03/11 10:16:43;;;;;;;6.47;3.55;;;18.80;43.80;;;;;;4932941;29;20527;-86
2022/03/11 10:19:34;;;;;;;7.78;3.78;;;19.60;43.60;;;;;;4935687;29;20125;-87
2022/03/11 10:22:06;;;;;;;8.38;4.03;;;19.20;43.30;;;;;;4908241;29;20416;-87
2022/03/11 10:24:37;;;;;;;8.07;3.45;;;17.00;42.20;;;;;;4918686;29;20170;-88
2022/03/11 10:27:31;;;;;;;6.43;3.47;;;18.70;43.00;;;;;;5011750;23;20022;-86
2022/03/11 10:43:32;;;;;;;9.02;3.47;;;19.60;43.70;;;;;;4947271;29;20116;-88
2022/03/11 10:46:10;;;;;;;9.15;3.47;;;20.70;44.70;;;;;;4927028;29;20510;-88
2022/03/11 10:49:35;;;;;;;6.25;3.25;;;20.90;44.60;;;;;;4900426;29;20459;-87
2022/03/11 10:52:48;;;;;;;7.68;3.53;;;19.50;43.40;;;;;;4856489;29;20061;-88
2022/03/11 10:55:26;;;;;;;5.72;3.50;;;19.90;44.60;;;;;;4871249;29;20106;-87
2022/03/11 11:09:26;;;;;;;5.30;3.10;;;18.10;42.70;;;;;;4824599;29;20145;-90
2022/03/11 11:12:27;;;;;;;5.85;3.22;;;19.50;43.40;;;;;;4806001;29;20066;-89
2022/03/11 11:14:53;;;;;;;5.50;2.88;;;18.50;43.20;;;;;;4790687;29;20149;-89
2022/03/11 11:18:16;;;;;;;7.03;2.83;;;18.50;43.20;;;;;;4790445;29;20054;-89
2022/03/11 11:24:39;;;;;;;5.63;3.03;;;18.80;43.00;;;;;;4928101;29;20405;-90
2022/03/11 11:27:20;;;;;;;6.50;2.85;;;19.70;43.40;;;;;;4920473;29;20135;-90
2022/03/11 11:30:49;;;;;;;5.07;3.13;;;20.60;44.50;;;;;;4930233;29;20052;-90
2022/03/11 11:33:30;;;;;;;5.28;2.90;;;18.50;42.90;;;;;;4856703;29;20093;-90
2022/03/11 11:36:37;;;;;;;4.60;2.60;;;19.60;44.20;;;;;;4826184;29;20065;-90
2022/03/11 11:39:11;;;;;;;5.38;2.75;;;18.80;42.90;;;;;;4784851;29;20496;-90
2022/03/11 11:49:04;;;;;;;4.82;3.03;;;18.70;42.80;;;;;;4829747;29;20090;-90
2022/03/11 11:52:26;;;;;;;4.70;2.70;;;19.20;43.10;;;;;;4757991;29;20124;-89
2022/03/11 11:55:10;;;;;;;5.25;2.72;;;20.70;44.10;;;;;;4841552;29;20049;-90
2022/03/11 11:58:09;;;;;;;6.13;3.08;;;19.70;43.30;;;;;;4891250;29;20057;-90
2022/03/11 12:01:07;;;;;;;;;;;;;;;;;;;;;
2022/03/11 12:04:33;;;;;;;5.50;2.85;;;19.80;43.40;;;;;;4912933;29;20063;-88
2022/03/11 12:35:55;;;;;;;5.60;2.85;;;19.90;43.30;;;;;;4956153;29;20043;-89
2022/03/11 12:42:16;;;;;;;4.68;2.83;;;19.50;43.20;;;;;;4905035;29;20488;-87
2022/03/11 13:35:06;;;;;;;5.65;3.30;;;19.60;42.50;;;;;;4934876;29;20054;-83
2022/03/11 13:37:59;;;;;;;6.47;3.35;;;19.30;42.30;;;;;;4934132;29;20071;-82
2022/03/11 15:44:39;;;;;;;51.97;21.80;;;20.00;41.50;;;;;;4983797;23;20504;-80
2022/03/11 15:47:07;;;;;;;54.80;21.60;;;20.10;41.40;;;;;;4936523;29;20054;-79
2022/03/11 16:35:32;;;;;;;27.50;11.63;;;19.90;41.50;;;;;;5889417;23;20182;-83
2022/03/11 17:04:49;;;;;;;17.77;8.35;;;18.90;40.10;;;;;;4934757;29;20091;-84
2022/03/11 17:16:06;;;;;;;18.80;7.75;;;20.20;41.00;;;;;;4948728;29;20547;-82
2022/03/11 17:18:57;;;;;;;16.20;7.60;;;18.90;40.30;;;;;;4933934;29;20059;-82
2022/03/11 17:21:33;;;;;;;16.13;7.18;;;20.10;42.30;;;;;;4930895;29;20058;-82
2022/03/11 17:24:49;;;;;;;14.73;7.03;;;21.30;42.40;;;;;;4935151;29;20874;-82
2022/03/11 17:33:35;;;;;;;15.90;7.15;;;19.70;40.90;;;;;;4913823;29;20044;-82
2022/03/11 17:36:32;;;;;;;13.88;6.38;;;21.10;41.90;;;;;;4907563;29;20117;-83
2022/03/11 17:39:08;;;;;;;15.02;6.15;;;18.30;40.30;;;;;;4906235;29;20079;-83
2022/03/11 17:41:33;;;;;;;12.63;5.97;;;17.90;40.40;;;;;;4927983;29;20552;-84
2022/03/11 17:44:05;;;;;;;13.98;5.72;;;21.00;42.10;;;;;;4912659;29;20127;-84
2022/03/11 17:46:34;;;;;;;11.43;5.68;;;20.80;42.20;;;;;;4910552;29;20428;-86
2022/03/11 17:49:43;;;;;;;14.95;5.70;;;19.90;41.40;;;;;;4901134;29;20044;-83
2022/03/11 17:52:27;;;;;;;11.55;5.55;;;19.50;41.10;;;;;;4932330;29;20443;-83
2022/03/11 17:58:26;;;;;;;12.85;6.32;;;18.20;41.90;;;;;;4871823;29;20050;-83
2022/03/11 18:00:52;;;;;;;17.13;8.20;;;20.80;42.70;;;;;;4897320;29;20040;-82
2022/03/11 18:03:17;;;;;;;20.13;9.10;;;19.20;41.50;;;;;;4897544;29;20083;-83
2022/03/11 18:05:46;;;;;;;32.65;15.15;;;19.80;41.90;;;;;;4897055;29;20055;-83
2022/03/11 18:08:14;;;;;;;29.17;13.52;;;21.00;43.20;;;;;;4897805;29;20059;-82
2022/03/11 18:10:46;;;;;;;45.60;20.00;;;19.80;41.90;;;;;;4897094;29;20048;-83
2022/03/11 18:13:11;;;;;;;51.30;22.38;;;20.20;42.20;;;;;;4898281;29;20315;-83
2022/03/11 18:15:37;;;;;;;50.03;21.67;;;19.80;41.90;;;;;;4914514;29;20048;-84
2022/03/11 18:18:39;;;;;;;46.83;21.30;;;19.90;42.10;;;;;;5028138;23;20118;-85
2022/03/11 18:21:54;;;;;;;51.53;19.83;;;19.90;42.00;;;;;;4951579;29;20172;-84
2022/03/11 18:28:02;;;;;;;44.38;18.42;;;21.00;43.00;;;;;;4934385;29;20047;-84
2022/03/11 18:34:15;;;;;;;32.05;13.00;;;19.90;42.10;;;;;;4820078;29;20495;-85
2022/03/11 18:37:18;;;;;;;30.38;12.02;;;20.50;42.60;;;;;;5135719;23;20055;-86
2022/03/11 18:39:44;;;;;;;24.60;10.10;;;19.60;41.70;;;;;;4934272;29;20090;-85
2022/03/11 18:42:15;;;;;;;27.13;10.98;;;19.70;41.90;;;;;;4953054;29;20456;-84
2022/03/11 18:44:41;;;;;;;29.25;12.15;;;19.90;41.80;;;;;;4934494;29;20134;-85
2022/03/11 18:47:07;;;;;;;25.50;11.18;;;18.80;41.40;;;;;;4934381;29;20150;-85
2022/03/11 18:49:32;;;;;;;24.05;10.85;;;19.20;41.80;;;;;;4931969;29;20081;-85
2022/03/11 18:52:32;;;;;;;24.60;10.30;;;20.00;42.10;;;;;;4924559;29;20748;-86
2022/03/11 18:54:58;;;;;;;23.25;10.70;;;19.00;41.50;;;;;;4946343;29;20492;-86
2022/03/11 18:57:39;;;;;;;23.35;9.70;;;19.10;41.80;;;;;;4930111;29;20049;-83
2022/03/11 19:00:08;;;;;;;21.88;9.32;;;20.00;42.10;;;;;;4928261;29;20483;-85
2022/03/11 19:02:34;;;;;;;20.67;9.25;;;19.80;42.50;;;;;;4934181;29;20061;-83
2022/03/11 19:05:09;;;;;;;18.88;8.85;;;20.80;42.70;;;;;;4943253;29;20058;-83
2022/03/11 19:07:37;;;;;;;22.13;9.27;;;21.00;42.70;;;;;;4931432;29;20164;-84
2022/03/11 19:10:07;;;;;;;20.50;8.57;;;21.10;42.80;;;;;;4933212;29;20142;-82
2022/03/11 19:12:44;;;;;;;20.35;8.63;;;20.00;42.20;;;;;;4932616;29;20044;-84
2022/03/11 19:15:19;;;;;;;21.15;8.65;;;20.10;42.10;;;;;;4923937;29;20052;-85
2022/03/11 19:17:51;;;;;;;20.40;8.43;;;20.10;42.70;;;;;;4932144;29;20058;-86
2022/03/11 19:20:16;;;;;;;17.67;8.03;;;18.00;41.20;;;;;;4926369;29;20055;-85
2022/03/11 19:22:42;;;;;;;22.77;7.93;;;21.20;43.10;;;;;;4952121;29;20043;-85
2022/03/11 19:29:36;;;;;;;18.55;7.85;;;20.10;42.20;;;;;;4865778;29;20505;-86
2022/03/11 19:32:24;;;;;;;16.55;7.65;;;19.20;41.70;;;;;;4879867;29;20639;-85
2022/03/11 19:35:28;;;;;;;17.10;7.50;;;18.00;41.20;;;;;;4859043;29;20136;-86
2022/03/11 19:42:19;;;;;;;15.70;7.53;;;19.30;41.90;;;;;;4780494;30;20089;-85
2022/03/11 19:44:58;;;;;;;18.45;8.07;;;19.90;42.30;;;;;;4800718;29;20055;-85
2022/03/11 19:47:42;;;;;;;16.02;6.68;;;21.40;43.30;;;;;;4785694;29;20885;-85
2022/03/11 19:53:58;;;;;;;13.77;6.70;;;19.10;41.80;;;;;;4790923;29;20527;-86
2022/03/11 19:56:44;;;;;;;14.75;5.88;;;20.00;42.40;;;;;;4896099;29;20058;-85
2022/03/11 20:03:01;;;;;;;17.33;6.80;;;20.00;42.40;;;;;;4913811;29;20765;-85
2022/03/11 20:05:40;;;;;;;12.40;5.75;;;20.00;42.40;;;;;;4885493;29;20049;-85
2022/03/11 20:08:28;;;;;;;14.45;6.82;;;20.30;42.90;;;;;;4895127;29;20127;-85
2022/03/11 20:10:58;;;;;;;15.52;6.45;;;19.80;42.40;;;;;;4894283;29;20623;-85
2022/03/11 20:13:40;;;;;;;13.60;5.90;;;20.00;43.20;;;;;;4878074;29;20057;-84
2022/03/11 20:16:06;;;;;;;;;;;18.20;41.70;;;;;;4896935;23;20050;-86
2022/03/11 20:18:32;;;;;;;13.20;6.50;;;19.90;42.50;;;;;;4965625;23;20449;-85
2022/03/11 20:20:58;;;;;;;12.35;6.10;;;19.90;42.60;;;;;;4948756;29;20050;-85
2022/03/11 20:23:25;;;;;;;12.02;5.43;;;19.90;42.60;;;;;;4936814;29;20055;-84
2022/03/11 20:25:51;;;;;;;13.35;5.68;;;19.90;42.60;;;;;;4929922;29;20126;-84
2022/03/11 20:28:19;;;;;;;12.85;5.80;;;20.50;42.90;;;;;;4936892;29;20138;-85
2022/03/11 20:30:48;;;;;;;12.07;5.40;;;19.90;42.60;;;;;;4937595;29;20051;-85
2022/03/11 20:33:13;;;;;;;15.02;6.00;;;19.90;42.70;;;;;;4952111;29;20423;-85
2022/03/11 20:35:42;;;;;;;13.50;5.22;;;19.90;42.70;;;;;;4926871;29;20098;-85
2022/03/11 20:38:08;;;;;;;14.55;6.07;;;19.90;42.70;;;;;;4947525;29;20051;-84
2022/03/11 20:40:33;;;;;;;11.15;5.38;;;19.90;42.80;;;;;;4934832;29;20086;-85
2022/03/11 20:42:59;;;;;;;12.15;5.05;;;19.80;42.70;;;;;;4951194;29;20055;-84
2022/03/11 20:45:29;;;;;;;12.70;5.15;;;19.80;42.70;;;;;;4936940;29;20610;-85
2022/03/11 20:47:58;;;;;;;14.50;5.25;;;19.80;42.70;;;;;;4937587;29;20051;-85
2022/03/11 20:50:27;;;;;;;12.25;5.20;;;19.80;42.70;;;;;;4937314;29;20110;-85
2022/03/11 20:52:54;;;;;;;11.00;4.80;;;21.10;43.50;;;;;;4954101;29;20498;-85
2022/03/11 20:55:19;;;;;;;11.48;5.32;;;19.80;42.80;;;;;;4954358;29;20492;-85
2022/03/11 20:57:48;;;;;;;11.55;5.13;;;19.80;42.80;;;;;;4954678;29;20059;-85
2022/03/11 21:00:23;;;;;;;11.15;5.20;;;19.80;42.80;;;;;;4954458;29;20067;-86
2022/03/11 21:02:48;;;;;;;10.82;4.68;;;19.80;42.90;;;;;;4954589;29;20044;-85
2022/03/11 21:05:14;;;;;;;11.20;5.00;;;19.70;42.80;;;;;;4933355;29;20062;-85
2022/03/11 21:07:39;;;;;;;11.05;5.20;;;19.90;43.00;;;;;;4936409;29;20051;-86
2022/03/11 21:10:07;;;;;;;10.57;4.70;;;19.80;42.90;;;;;;4937001;29;20520;-85
2022/03/11 21:12:46;;;;;;;11.07;4.70;;;19.80;42.90;;;;;;4937031;29;20062;-85
2022/03/11 21:15:15;;;;;;;11.70;4.38;;;19.80;42.90;;;;;;4937303;29;20043;-85
2022/03/11 21:18:35;;;;;;;10.98;4.28;;;19.80;43.20;;;;;;4936693;29;20051;-85
2022/03/11 21:21:00;;;;;;;10.40;4.25;;;19.80;42.90;;;;;;4936422;29;20495;-85
2022/03/11 21:23:26;;;;;;;12.10;4.72;;;19.20;42.90;;;;;;4936820;29;20050;-84
2022/03/11 21:33:24;;;;;;;9.65;4.53;;;19.70;43.00;;;;;;4859582;29;20053;-84
2022/03/11 21:35:50;;;;;;;9.95;3.45;;;19.60;43.20;;;;;;5072865;23;20013;-83
2022/03/11 21:38:15;;;;;;;7.25;2.97;;;19.70;42.90;;;;;;4935582;29;20051;-85
2022/03/11 21:40:41;;;;;;;8.88;3.78;;;19.70;42.80;;;;;;4934285;29;20405;-85
2022/03/11 21:43:37;;;;;;;6.88;3.05;;;19.70;42.70;;;;;;4925877;29;20051;-85
2022/03/11 21:46:16;;;;;;;8.25;3.30;;;19.70;42.70;;;;;;4942694;29;20087;-85
2022/03/11 21:48:51;;;;;;;9.35;3.13;;;19.70;42.80;;;;;;4946552;29;20500;-85
2022/03/11 21:56:31;;;;;;;5.90;3.17;;;19.70;42.80;;;;;;4994162;23;20531;-85
2022/03/11 21:59:23;;;;;;;7.82;3.08;;;20.10;43.20;;;;;;4919360;29;20499;-83
2022/03/11 22:02:05;;;;;;;7.85;3.53;;;19.20;42.60;;;;;;4913832;29;20508;-84
2022/03/11 22:04:58;;;;;;;7.35;2.83;;;19.60;43.70;;;;;;4929536;29;20059;-84
2022/03/11 22:07:36;;;;;;;8.70;2.95;;;19.60;43.10;;;;;;4893679;29;20061;-84
2022/03/11 22:10:04;;;;;;;7.47;2.92;;;20.60;43.80;;;;;;4912858;23;20058;-85
2022/03/11 22:12:32;;;;;;;6.30;3.03;;;19.60;42.90;;;;;;4935252;29;20512;-86
2022/03/11 22:15:01;;;;;;;6.88;3.03;;;19.60;42.90;;;;;;4936187;29;20106;-86
2022/03/11 22:17:33;;;;;;;5.78;3.05;;;19.60;42.90;;;;;;4935720;29;20039;-85
2022/03/11 22:19:59;;;;;;;8.25;2.88;;;19.60;43.00;;;;;;4954038;29;20059;-87
2022/03/11 22:22:26;;;;;;;7.80;2.70;;;19.60;43.00;;;;;;4953673;29;20107;-86
2022/03/11 22:24:51;;;;;;;7.30;3.05;;;19.60;43.00;;;;;;4935904;29;20050;-85
2022/03/11 22:27:18;;;;;;;6.50;2.92;;;19.60;43.10;;;;;;4936302;29;20483;-86
2022/03/11 22:29:44;;;;;;;8.13;3.20;;;19.60;43.00;;;;;;4936109;29;20051;-86
2022/03/11 22:32:09;;;;;;;5.70;2.80;;;19.60;43.10;;;;;;4935351;29;20050;-86
2022/03/11 22:34:35;;;;;;;6.45;2.60;;;19.60;43.10;;;;;;4936164;29;20743;-86
2022/03/11 22:37:07;;;;;;;5.65;2.45;;;19.50;43.10;;;;;;4953339;29;20051;-87
2022/03/11 22:39:33;;;;;;;6.90;2.60;;;20.90;43.80;;;;;;4934863;29;20035;-87
2022/03/11 22:42:05;;;;;;;5.50;2.35;;;19.50;43.10;;;;;;4935777;29;20057;-86
2022/03/11 22:44:39;;;;;;;6.00;2.78;;;19.50;43.10;;;;;;4952923;29;20043;-87
2022/03/11 22:47:09;;;;;;;6.20;2.70;;;18.80;43.30;;;;;;4935389;29;20117;-87
2022/03/11 22:54:30;;;;;;;6.22;2.60;;;19.50;43.20;;;;;;4876149;29;20064;-87
2022/03/11 23:01:52;;;;;;;6.32;2.40;;;19.60;43.30;;;;;;4750474;30;20072;-86
2022/03/11 23:12:52;;;;;;;5.50;2.30;;;19.50;43.30;;;;;;4702611;30;20538;-86
2022/03/11 23:15:25;;;;;;;5.80;2.55;;;19.50;43.30;;;;;;4694995;30;20061;-87
2022/03/11 23:18:10;;;;;;;5.93;2.28;;;19.80;43.90;;;;;;4694764;30;20061;-87
2022/03/11 23:28:23;;;;;;;6.38;2.65;;;18.90;43.00;;;;;;4754600;30;20050;-85
2022/03/11 23:30:49;;;;;;;5.75;2.22;;;20.10;43.80;;;;;;4765104;30;20114;-86
2022/03/11 23:33:33;;;;;;;5.00;2.10;;;17.70;42.60;;;;;;4760733;30;20129;-86
2022/03/11 23:39:47;;;;;;;4.90;2.15;;;18.90;43.10;;;;;;4799596;29;20050;-86
2022/03/11 23:42:20;;;;;;;5.82;2.33;;;19.10;43.20;;;;;;4850703;29;20162;-86
2022/03/11 23:45:04;;;;;;;5.88;2.60;;;19.10;43.40;;;;;;4890427;29;20397;-86
2022/03/11 23:47:33;;;;;;;6.88;2.40;;;19.40;43.70;;;;;;4916465;29;20044;-86
2022/03/11 23:50:09;;;;;;;5.57;2.30;;;19.60;43.60;;;;;;4915375;29;20546;-86
2022/03/11 23:52:55;;;;;;;6.70;2.20;;;19.40;43.50;;;;;;4916375;29;20056;-87
2022/03/11 23:55:27;;;;;;;6.60;2.42;;;20.50;44.60;;;;;;4932909;29;20048;-86
2022/03/11 23:57:52;;;;;;;5.20;2.35;;;19.70;43.60;;;;;;4902582;29;20052;-86
